Time;durP1;ratioP1;P1;durP2;ratioP2;P2;SDS_P1;SDS_P2;PMS_P1;PMS_P2;Temp;Humidity;BMP_temperature;BMP_pressure;BME280_temperature;BME280_humidity;BME280_pressure;Samples;Min_cycle;Max_cycle;Signal;HPM_P1;HPM_P2
2022/05/02 00:01:32;;;;;;;0.10;0.10;;;;;;;;;;5083046;28;20238;-78
2022/05/02 00:03:58;;;;;;;0.10;0.10;;;;;;;;;;5086964;28;20205;-78
2022/05/02 00:06:26;;;;;;;0.10;0.10;;;;;;;;;;5082882;28;20298;-77
2022/05/02 00:08:53;;;;;;;0.10;0.10;;;;;;;;;;5091212;28;20309;-78
2022/05/02 00:11:19;;;;;;;0.10;0.10;;;;;;;;;;5085480;28;20605;-78
2022/05/02 00:13:45;;;;;;;0.10;0.10;;;;;;;;;;5091918;28;20210;-77
2022/05/02 00:16:12;;;;;;;0.10;0.10;;;;;;;;;;5084099;28;20237;-78
2022/05/02 00:18:38;;;;;;;0.00;0.00;;;;;;;;;;5092705;28;20218;-77
2022/05/02 00:21:04;;;;;;;0.10;0.10;;;;;;;;;;5082987;28;20576;-77
2022/05/02 00:23:32;;;;;;;0.10;0.10;;;;;;;;;;5093411;28;20206;-79
2022/05/02 00:25:58;;;;;;;0.10;0.10;;;;;;;;;;5082194;28;20249;-78
2022/05/02 00:28:24;;;;;;;0.10;0.10;;;;;;;;;;5094446;28;20206;-78
2022/05/02 00:30:51;;;;;;;1.50;1.50;;;;;;;;;;5081021;28;20245;-77
2022/05/02 00:33:20;;;;;;;0.10;0.10;;;;;;;;;;5095054;28;20207;-78
2022/05/02 00:35:46;;;;;;;0.20;0.20;;;;;;;;;;5080824;28;20246;-78
2022/05/02 00:38:12;;;;;;;0.10;0.10;;;;;;;;;;5095999;28;20206;-78
2022/05/02 00:40:40;;;;;;;0.10;0.10;;;;;;;;;;5079304;28;20575;-79
2022/05/02 00:43:06;;;;;;;0.10;0.10;;;;;;;;;;5096648;28;20219;-78
2022/05/02 00:45:36;;;;;;;0.10;0.10;;;;;;;;;;5078507;28;20240;-78
2022/05/02 00:48:02;;;;;;;0.10;0.10;;;;;;;;;;5097199;28;20194;-78
2022/05/02 00:50:35;;;;;;;0.10;0.10;;;;;;;;;;5078307;28;20249;-78
2022/05/02 00:53:04;;;;;;;0.03;0.03;;;;;;;;;;5097061;28;20319;-77
2022/05/02 00:55:31;;;;;;;0.10;0.10;;;;;;;;;;5077019;28;20244;-79
2022/05/02 00:58:00;;;;;;;0.10;0.10;;;;;;;;;;5097013;28;20206;-77
2022/05/02 01:00:27;;;;;;;0.10;0.10;;;;;;;;;;5077893;28;20505;-78
2022/05/02 01:02:56;;;;;;;0.10;0.10;;;;;;;;;;5098072;28;20208;-77
2022/05/02 01:05:22;;;;;;;0.10;0.10;;;;;;;;;;5077191;28;20206;-78
2022/05/02 01:07:48;;;;;;;0.10;0.10;;;;;;;;;;5098477;28;20195;-77
2022/05/02 01:10:17;;;;;;;0.10;0.10;;;;;;;;;;5076076;28;20497;-77
2022/05/02 01:12:43;;;;;;;0.10;0.10;;;;;;;;;;5099177;28;20377;-78
2022/05/02 01:15:11;;;;;;;0.00;0.00;;;;;;;;;;5075209;28;20248;-76
2022/05/02 01:17:38;;;;;;;0.10;0.10;;;;;;;;;;5099505;28;20474;-78
2022/05/02 01:20:07;;;;;;;0.10;0.10;;;;;;;;;;5082421;28;20209;-77
2022/05/02 01:22:34;;;;;;;0.10;0.10;;;;;;;;;;5099705;28;20216;-78
2022/05/02 01:25:00;;;;;;;0.10;0.10;;;;;;;;;;5084959;28;20285;-78
2022/05/02 01:27:26;;;;;;;0.00;0.00;;;;;;;;;;5089714;28;20262;-79
2022/05/02 01:29:53;;;;;;;0.10;0.10;;;;;;;;;;5084676;28;20206;-78
2022/05/02 01:32:19;;;;;;;0.10;0.10;;;;;;;;;;5089989;28;20241;-79
2022/05/02 01:34:45;;;;;;;0.10;0.10;;;;;;;;;;5084672;28;20215;-79
2022/05/02 01:37:14;;;;;;;0.10;0.10;;;;;;;;;;5089545;28;20245;-78
2022/05/02 01:39:40;;;;;;;0.10;0.10;;;;;;;;;;5084301;28;20359;-78
2022/05/02 01:42:08;;;;;;;0.10;0.10;;;;;;;;;;5089656;28;20282;-78
2022/05/02 01:44:35;;;;;;;0.10;0.10;;;;;;;;;;5084348;28;20229;-78
2022/05/02 01:47:01;;;;;;;0.10;0.10;;;;;;;;;;5088816;28;20241;-78
2022/05/02 01:49:27;;;;;;;0.00;0.00;;;;;;;;;;5084468;28;20198;-77
2022/05/02 01:51:54;;;;;;;0.10;0.10;;;;;;;;;;5087503;28;20239;-78
2022/05/02 01:54:22;;;;;;;0.10;0.10;;;;;;;;;;5085309;28;20280;-78
2022/05/02 01:56:49;;;;;;;0.10;0.10;;;;;;;;;;5087091;28;20476;-78
2022/05/02 01:59:15;;;;;;;0.10;0.10;;;;;;;;;;5085680;28;20533;-79
2022/05/02 02:01:41;;;;;;;0.10;0.10;;;;;;;;;;5085897;28;20292;-79
2022/05/02 02:06:48;;;;;;;0.10;0.10;;;;;;;;;;5086568;28;20284;-78
2022/05/02 02:09:14;;;;;;;0.10;0.10;;;;;;;;;;5086506;28;20357;-78
2022/05/02 02:11:42;;;;;;;0.10;0.10;;;;;;;;;;5085676;28;20266;-79
2022/05/02 02:14:08;;;;;;;0.10;0.10;;;;;;;;;;5086349;28;20210;-77
2022/05/02 02:16:35;;;;;;;0.10;0.10;;;;;;;;;;5084663;28;20249;-79
2022/05/02 02:19:01;;;;;;;0.10;0.10;;;;;;;;;;5087648;28;20275;-78
2022/05/02 02:21:27;;;;;;;0.10;0.10;;;;;;;;;;5083838;28;20233;-78
2022/05/02 02:23:54;;;;;;;0.10;0.10;;;;;;;;;;5088460;28;20223;-76
2022/05/02 02:26:20;;;;;;;0.10;0.10;;;;;;;;;;5082923;28;20240;-78
2022/05/02 02:28:48;;;;;;;0.10;0.10;;;;;;;;;;5089217;28;20215;-77
2022/05/02 02:31:14;;;;;;;0.10;0.10;;;;;;;;;;5081246;28;20570;-78
2022/05/02 02:33:40;;;;;;;0.10;0.10;;;;;;;;;;5090379;28;20249;-77
2022/05/02 02:36:07;;;;;;;0.10;0.10;;;;;;;;;;5081044;28;20238;-77
2022/05/02 02:38:33;;;;;;;0.10;0.10;;;;;;;;;;5091149;28;20245;-79
2022/05/02 02:40:59;;;;;;;0.10;0.10;;;;;;;;;;5079789;28;20240;-78
2022/05/02 02:43:26;;;;;;;0.10;0.10;;;;;;;;;;5092081;28;20205;-78
2022/05/02 02:45:54;;;;;;;0.10;0.10;;;;;;;;;;5079025;28;20286;-78
2022/05/02 02:48:20;;;;;;;0.10;0.10;;;;;;;;;;5081809;28;20333;-78
2022/05/02 02:50:47;;;;;;;0.10;0.10;;;;;;;;;;5078051;28;20344;-78
2022/05/02 02:53:13;;;;;;;0.10;0.10;;;;;;;;;;5093552;28;20253;-77
2022/05/02 02:55:39;;;;;;;0.10;0.10;;;;;;;;;;5077052;28;20427;-77
2022/05/02 02:58:06;;;;;;;0.10;0.10;;;;;;;;;;5094151;28;20248;-77
2022/05/02 03:00:35;;;;;;;0.10;0.10;;;;;;;;;;5076297;28;20246;-79
2022/05/02 03:03:02;;;;;;;0.10;0.10;;;;;;;;;;5094792;28;20210;-79
2022/05/02 03:08:12;;;;;;;0.10;0.10;;;;;;;;;;5093396;28;20490;-77
2022/05/02 03:10:40;;;;;;;0.10;0.10;;;;;;;;;;5075994;28;20473;-77
2022/05/02 03:13:06;;;;;;;0.10;0.10;;;;;;;;;;5094098;28;20203;-79
2022/05/02 03:15:33;;;;;;;0.10;0.10;;;;;;;;;;5074635;28;20251;-78
2022/05/02 03:18:00;;;;;;;0.10;0.10;;;;;;;;;;5094661;28;20266;-78
2022/05/02 03:20:28;;;;;;;0.10;0.10;;;;;;;;;;5075622;28;20247;-79
2022/05/02 03:22:55;;;;;;;0.10;0.10;;;;;;;;;;5095421;28;20219;-77
2022/05/02 03:25:21;;;;;;;0.10;0.10;;;;;;;;;;5074872;28;20218;-77
2022/05/02 03:27:47;;;;;;;0.10;0.10;;;;;;;;;;5096268;28;20191;-78
2022/05/02 03:30:14;;;;;;;0.10;0.10;;;;;;;;;;5073295;28;20378;-78
2022/05/02 03:32:40;;;;;;;0.10;0.10;;;;;;;;;;5097182;28;20240;-77
2022/05/02 03:35:08;;;;;;;0.10;0.10;;;;;;;;;;5072939;28;20249;-77
2022/05/02 03:37:35;;;;;;;0.10;0.10;;;;;;;;;;5098110;28;20329;-78
2022/05/02 03:40:04;;;;;;;0.10;0.10;;;;;;;;;;5082480;28;20239;-78
2022/05/02 03:42:30;;;;;;;0.10;0.10;;;;;;;;;;5074956;28;20219;-77
2022/05/02 03:44:56;;;;;;;0.10;0.10;;;;;;;;;;5086520;28;20203;-77
2022/05/02 03:47:23;;;;;;;0.10;0.10;;;;;;;;;;5091795;28;20239;-77
2022/05/02 03:49:49;;;;;;;0.10;0.10;;;;;;;;;;5086658;28;20218;-78
2022/05/02 03:52:16;;;;;;;0.10;0.10;;;;;;;;;;5091839;28;20461;-78
2022/05/02 03:54:44;;;;;;;0.10;0.10;;;;;;;;;;5086269;28;20203;-77
2022/05/02 03:57:10;;;;;;;0.10;0.10;;;;;;;;;;5091532;28;20451;-77
2022/05/02 03:59:37;;;;;;;0.10;0.10;;;;;;;;;;5085944;28;20210;-77
2022/05/02 04:02:03;;;;;;;0.10;0.10;;;;;;;;;;5090731;28;20245;-78
2022/05/02 04:04:29;;;;;;;0.10;0.10;;;;;;;;;;5086785;28;20342;-77
2022/05/02 04:06:56;;;;;;;0.10;0.10;;;;;;;;;;5090263;28;20255;-76
2022/05/02 04:09:22;;;;;;;0.10;0.10;;;;;;;;;;5087282;28;20358;-79
2022/05/02 04:11:50;;;;;;;0.10;0.10;;;;;;;;;;5089345;28;20230;-77
2022/05/02 04:14:17;;;;;;;0.10;0.10;;;;;;;;;;5087835;28;20274;-77
2022/05/02 04:16:43;;;;;;;0.10;0.10;;;;;;;;;;5088467;28;20265;-77
2022/05/02 04:19:09;;;;;;;0.10;0.10;;;;;;;;;;5088576;28;20203;-78
2022/05/02 04:21:36;;;;;;;0.10;0.10;;;;;;;;;;5087433;28;20237;-77
2022/05/02 04:24:03;;;;;;;0.10;0.10;;;;;;;;;;5089182;28;20211;-78
2022/05/02 04:26:31;;;;;;;0.27;0.27;;;;;;;;;;5086469;28;20260;-77
2022/05/02 04:28:58;;;;;;;0.10;0.10;;;;;;;;;;5089848;28;20203;-77
2022/05/02 04:31:25;;;;;;;0.10;0.10;;;;;;;;;;5085785;28;20419;-78
2022/05/02 04:33:51;;;;;;;0.10;0.10;;;;;;;;;;5090629;28;20211;-79
2022/05/02 04:36:18;;;;;;;0.10;0.10;;;;;;;;;;5084455;28;20246;-78
2022/05/02 04:38:44;;;;;;;0.10;0.10;;;;;;;;;;5091608;28;20435;-77
2022/05/02 04:41:13;;;;;;;0.10;0.10;;;;;;;;;;5083680;28;20598;-77
2022/05/02 04:43:40;;;;;;;0.10;0.10;;;;;;;;;;5091989;28;20230;-77
2022/05/02 04:46:08;;;;;;;0.10;0.10;;;;;;;;;;5083180;28;20246;-78
2022/05/02 04:48:34;;;;;;;0.10;0.10;;;;;;;;;;5093312;28;20536;-78
2022/05/02 04:51:00;;;;;;;0.10;0.10;;;;;;;;;;5082503;28;20239;-77
2022/05/02 04:53:27;;;;;;;0.10;0.10;;;;;;;;;;5093047;28;20213;-78
2022/05/02 04:55:53;;;;;;;0.10;0.10;;;;;;;;;;5081141;28;20246;-78
2022/05/02 04:58:19;;;;;;;0.10;0.10;;;;;;;;;;5094746;28;20211;-77
2022/05/02 05:00:46;;;;;;;0.10;0.10;;;;;;;;;;5080302;28;20234;-78
2022/05/02 05:03:13;;;;;;;0.10;0.10;;;;;;;;;;5095321;28;20224;-77
2022/05/02 05:05:39;;;;;;;0.10;0.10;;;;;;;;;;5079074;28;20259;-78
2022/05/02 05:08:06;;;;;;;0.97;0.97;;;;;;;;;;5096131;28;20204;-77
2022/05/02 05:10:36;;;;;;;0.10;0.10;;;;;;;;;;5078140;28;20374;-77
2022/05/02 05:13:06;;;;;;;0.10;0.10;;;;;;;;;;5096161;28;20203;-77
2022/05/02 05:18:34;;;;;;;0.10;0.10;;;;;;;;;;5093296;28;20237;-78
2022/05/02 05:21:02;;;;;;;0.10;0.10;;;;;;;;;;5081522;28;20417;-78
2022/05/02 05:23:47;;;;;;;0.10;0.10;;;;;;;;;;5092899;28;20229;-79
2022/05/02 05:26:16;;;;;;;0.10;0.10;;;;;;;;;;5083101;28;20253;-77
2022/05/02 05:28:46;;;;;;;0.10;0.10;;;;;;;;;;5091158;28;20203;-78
2022/05/02 05:31:18;;;;;;;0.10;0.10;;;;;;;;;;5083329;28;20242;-78
2022/05/02 05:33:50;;;;;;;0.10;0.10;;;;;;;;;;5090433;28;20195;-79
2022/05/02 05:36:20;;;;;;;0.10;0.10;;;;;;;;;;5083609;28;20383;-79
2022/05/02 05:38:51;;;;;;;0.10;0.10;;;;;;;;;;5090335;28;20194;-79
2022/05/02 05:41:25;;;;;;;0.10;0.10;;;;;;;;;;5083518;28;20484;-78
2022/05/02 05:43:58;;;;;;;0.10;0.10;;;;;;;;;;5089663;28;20242;-78
2022/05/02 05:46:30;;;;;;;0.10;0.10;;;;;;;;;;5084038;28;20248;-78
2022/05/02 05:49:02;;;;;;;0.10;0.10;;;;;;;;;;5089076;28;20195;-77
2022/05/02 05:51:31;;;;;;;0.10;0.10;;;;;;;;;;5084800;28;20621;-78
2022/05/02 05:54:04;;;;;;;0.10;0.10;;;;;;;;;;5082627;28;20200;-79
2022/05/02 05:56:35;;;;;;;0.10;0.10;;;;;;;;;;5084894;28;20245;-79
2022/05/02 05:59:06;;;;;;;0.10;0.10;;;;;;;;;;5087853;28;20203;-77
2022/05/02 06:01:40;;;;;;;0.10;0.10;;;;;;;;;;5084343;28;20238;-78
2022/05/02 06:04:19;;;;;;;0.10;0.10;;;;;;;;;;5086545;28;20202;-78
2022/05/02 06:06:47;;;;;;;0.10;0.10;;;;;;;;;;5086648;28;20296;-78
2022/05/02 06:09:15;;;;;;;0.10;0.10;;;;;;;;;;5086125;28;20455;-77
2022/05/02 06:11:41;;;;;;;0.10;0.10;;;;;;;;;;5085565;28;20298;-77
2022/05/02 06:14:08;;;;;;;0.10;0.10;;;;;;;;;;5087067;28;20207;-78
2022/05/02 06:19:25;;;;;;;0.10;0.10;;;;;;;;;;5084706;28;20241;-77
2022/05/02 06:21:53;;;;;;;0.10;0.10;;;;;;;;;;5087180;28;20556;-79
2022/05/02 06:24:20;;;;;;;0.10;0.10;;;;;;;;;;5084857;28;20204;-76
2022/05/02 06:26:47;;;;;;;0.10;0.10;;;;;;;;;;5086458;28;20238;-77
2022/05/02 06:29:13;;;;;;;0.10;0.10;;;;;;;;;;5085948;28;20262;-76
2022/05/02 06:31:44;;;;;;;0.10;0.10;;;;;;;;;;5086045;28;20249;-76
2022/05/02 06:34:10;;;;;;;0.10;0.10;;;;;;;;;;5082650;28;20222;-77
2022/05/02 06:36:49;;;;;;;0.10;0.10;;;;;;;;;;5085512;28;20253;-77
2022/05/02 06:39:20;;;;;;;0.10;0.10;;;;;;;;;;5085477;28;20217;-76
2022/05/02 06:41:52;;;;;;;0.10;0.10;;;;;;;;;;5086702;28;20244;-76
2022/05/02 06:44:25;;;;;;;0.10;0.10;;;;;;;;;;5085410;28;20239;-77
2022/05/02 06:46:54;;;;;;;0.10;0.10;;;;;;;;;;5086771;28;20241;-75
2022/05/02 06:49:20;;;;;;;0.10;0.10;;;;;;;;;;5084512;28;20207;-78
2022/05/02 06:51:49;;;;;;;0.10;0.10;;;;;;;;;;5086107;28;20241;-77
2022/05/02 06:54:28;;;;;;;0.10;0.10;;;;;;;;;;5084828;28;20209;-78
2022/05/02 06:57:00;;;;;;;0.10;0.10;;;;;;;;;;5086873;28;20549;-78
2022/05/02 06:59:35;;;;;;;0.10;0.10;;;;;;;;;;5083787;28;20445;-73
2022/05/02 07:02:10;;;;;;;0.10;0.10;;;;;;;;;;5087721;28;20242;-73
2022/05/02 07:04:42;;;;;;;0.10;0.10;;;;;;;;;;5083241;28;20219;-73
2022/05/02 07:07:17;;;;;;;0.10;0.10;;;;;;;;;;5088446;28;20238;-72
2022/05/02 07:09:45;;;;;;;0.00;0.00;;;;;;;;;;5083209;28;20248;-72
2022/05/02 07:12:13;;;;;;;0.10;0.10;;;;;;;;;;5088219;28;20308;-73
2022/05/02 07:14:44;;;;;;;0.10;0.10;;;;;;;;;;5082952;28;20212;-74
2022/05/02 07:17:16;;;;;;;0.10;0.10;;;;;;;;;;5087669;28;20473;-72
2022/05/02 07:19:48;;;;;;;0.10;0.10;;;;;;;;;;5083072;28;20383;-71
2022/05/02 07:22:20;;;;;;;0.10;0.10;;;;;;;;;;5088031;28;20231;-71
2022/05/02 07:24:47;;;;;;;0.10;0.10;;;;;;;;;;5082732;28;20370;-73
2022/05/02 07:27:17;;;;;;;0.10;0.10;;;;;;;;;;5088230;28;20602;-72
2022/05/02 07:29:45;;;;;;;0.10;0.10;;;;;;;;;;5083049;28;20553;-72
2022/05/02 07:32:11;;;;;;;0.10;0.10;;;;;;;;;;5088145;28;20277;-72
2022/05/02 07:34:39;;;;;;;0.10;0.10;;;;;;;;;;5082805;28;20197;-71
2022/05/02 07:37:06;;;;;;;0.03;0.03;;;;;;;;;;5088012;28;20443;-71
2022/05/02 07:39:36;;;;;;;0.03;0.03;;;;;;;;;;5082841;28;20553;-72
2022/05/02 07:42:04;;;;;;;0.10;0.10;;;;;;;;;;5087417;28;20254;-71
2022/05/02 07:44:31;;;;;;;0.10;0.10;;;;;;;;;;5082902;28;20250;-72
2022/05/02 07:46:58;;;;;;;0.10;0.10;;;;;;;;;;5086462;28;20282;-73
2022/05/02 07:49:26;;;;;;;0.03;0.03;;;;;;;;;;5083772;28;20377;-72
2022/05/02 07:51:53;;;;;;;0.10;0.10;;;;;;;;;;5086384;28;20236;-73
2022/05/02 07:54:20;;;;;;;0.10;0.10;;;;;;;;;;5083881;28;20405;-73
2022/05/02 07:56:53;;;;;;;0.10;0.10;;;;;;;;;;5085561;28;20241;-73
2022/05/02 07:59:20;;;;;;;0.10;0.10;;;;;;;;;;5084114;28;20233;-72
2022/05/02 08:01:46;;;;;;;0.10;0.10;;;;;;;;;;5085565;28;20287;-73
2022/05/02 08:04:13;;;;;;;0.10;0.10;;;;;;;;;;5084715;28;20234;-72
2022/05/02 08:06:47;;;;;;;0.10;0.10;;;;;;;;;;5084656;28;20242;-72
2022/05/02 08:09:19;;;;;;;0.00;0.00;;;;;;;;;;5085260;28;20214;-71
2022/05/02 08:11:51;;;;;;;0.10;0.10;;;;;;;;;;5085188;28;20303;-72
2022/05/02 08:14:22;;;;;;;0.00;0.00;;;;;;;;;;5084487;28;20194;-72
2022/05/02 08:16:53;;;;;;;1.63;1.63;;;;;;;;;;5085607;28;20500;-72
2022/05/02 08:19:25;;;;;;;0.10;0.10;;;;;;;;;;5084018;28;20196;-71
2022/05/02 08:27:15;;;;;;;0.03;0.03;;;;;;;;;;5085641;28;20248;-72
2022/05/02 08:27:38;;;;;;;0.10;0.10;;;;;;;;;;5071602;28;20213;-72
2022/05/02 08:30:09;;;;;;;0.10;0.10;;;;;;;;;;5082030;28;20263;-71
2022/05/02 08:32:44;;;;;;;0.00;0.00;;;;;;;;;;5101027;28;20275;-72
2022/05/02 08:35:13;;;;;;;0.00;0.00;;;;;;;;;;5076183;28;20210;-72
2022/05/02 08:37:55;;;;;;;0.08;0.08;;;;;;;;;;5100152;28;20201;-72
2022/05/02 08:40:30;;;;;;;0.03;0.03;;;;;;;;;;5077424;28;20245;-73
2022/05/02 08:43:21;;;;;;;0.00;0.00;;;;;;;;;;5097621;28;20246;-71
2022/05/02 08:46:02;;;;;;;0.00;0.00;;;;;;;;;;5039036;28;20251;-73
2022/05/02 08:49:32;;;;;;;0.10;0.10;;;;;;;;;;5091111;28;20212;-73
2022/05/02 08:51:58;;;;;;;0.10;0.10;;;;;;;;;;5077431;28;20241;-73
2022/05/02 08:54:42;;;;;;;0.10;0.10;;;;;;;;;;5087502;28;20191;-72
2022/05/02 08:57:16;;;;;;;0.03;0.03;;;;;;;;;;5090500;28;20290;-72
2022/05/02 09:00:04;;;;;;;0.10;0.10;;;;;;;;;;5085572;28;20200;-71
2022/05/02 09:02:50;;;;;;;0.10;0.10;;;;;;;;;;5073700;28;20407;-72
2022/05/02 09:05:34;;;;;;;0.05;0.05;;;;;;;;;;5076431;28;20230;-72
2022/05/02 09:08:13;;;;;;;0.10;0.10;;;;;;;;;;5066839;28;20314;-72
2022/05/02 09:10:47;;;;;;;0.10;0.10;;;;;;;;;;5079058;28;20293;-74
2022/05/02 09:13:34;;;;;;;0.00;0.00;;;;;;;;;;5095166;28;20214;-71
2022/05/02 09:16:18;;;;;;;0.00;0.00;;;;;;;;;;5048226;28;20240;-73
2022/05/02 09:19:08;;;;;;;0.03;0.03;;;;;;;;;;5079122;28;20284;-73
2022/05/02 09:21:45;;;;;;;0.05;0.05;;;;;;;;;;5002201;28;20249;-73
2022/05/02 09:24:33;;;;;;;0.05;0.05;;;;;;;;;;5087428;28;20278;-73
2022/05/02 09:27:21;;;;;;;0.10;0.10;;;;;;;;;;5089427;28;20240;-72
2022/05/02 09:30:06;;;;;;;0.08;0.08;;;;;;;;;;5085889;28;20194;-72
2022/05/02 09:32:45;;;;;;;0.00;0.00;;;;;;;;;;5074790;28;20222;-71
2022/05/02 09:35:14;;;;;;;0.10;0.10;;;;;;;;;;5076569;28;20484;-71
2022/05/02 09:37:47;;;;;;;0.10;0.10;;;;;;;;;;5102011;28;20210;-74
2022/05/02 09:40:15;;;;;;;0.00;0.00;;;;;;;;;;5077416;28;20241;-73
2022/05/02 09:42:46;;;;;;;0.08;0.08;;;;;;;;;;5101120;28;20420;-73
2022/05/02 09:51:14;;;;;;;0.10;0.10;;;;;;;;;;5084118;28;20374;-73
2022/05/02 09:53:47;;;;;;;0.00;0.00;;;;;;;;;;5092189;28;20485;-74
2022/05/02 09:59:08;;;;;;;0.00;0.00;;;;;;;;;;5089976;28;20214;-72
2022/05/02 10:01:35;;;;;;;0.00;0.00;;;;;;;;;;5086184;28;20308;-73
2022/05/02 10:04:18;;;;;;;0.10;0.10;;;;;;;;;;5088639;28;20228;-72
2022/05/02 10:06:48;;;;;;;0.00;0.00;;;;;;;;;;5087091;28;20280;-72
2022/05/02 10:09:21;;;;;;;0.10;0.10;;;;;;;;;;5086501;28;20213;-73
2022/05/02 10:11:56;;;;;;;0.10;0.10;;;;;;;;;;5087631;28;20657;-73
2022/05/02 10:14:35;;;;;;;0.00;0.00;;;;;;;;;;5085703;28;20201;-72
2022/05/02 10:17:05;;;;;;;0.10;0.10;;;;;;;;;;5088886;28;20254;-74
2022/05/02 10:19:41;;;;;;;0.10;0.10;;;;;;;;;;5084392;28;20247;-73
2022/05/02 10:22:23;;;;;;;0.00;0.00;;;;;;;;;;5089556;28;20280;-74
2022/05/02 10:25:07;;;;;;;0.00;0.00;;;;;;;;;;5083622;28;20222;-73
2022/05/02 10:27:35;;;;;;;0.00;0.00;;;;;;;;;;5071951;28;20533;-75
2022/05/02 10:30:06;;;;;;;0.00;0.00;;;;;;;;;;5083547;28;20228;-74
2022/05/02 10:32:43;;;;;;;0.00;0.00;;;;;;;;;;5071989;28;20229;-74
2022/05/02 10:35:12;;;;;;;0.10;0.10;;;;;;;;;;5073533;28;20392;-73
2022/05/02 10:37:40;;;;;;;0.10;0.10;;;;;;;;;;5098256;28;20236;-73
2022/05/02 10:40:12;;;;;;;0.00;0.00;;;;;;;;;;5073141;28;20233;-73
2022/05/02 10:42:43;;;;;;;0.00;0.00;;;;;;;;;;5098165;28;20398;-74
2022/05/02 10:45:10;;;;;;;0.00;0.00;;;;;;;;;;5073424;28;20214;-74
2022/05/02 10:47:40;;;;;;;0.10;0.10;;;;;;;;;;5098460;28;20238;-74
2022/05/02 10:50:11;;;;;;;0.10;0.10;;;;;;;;;;5073490;28;20214;-73
2022/05/02 10:52:51;;;;;;;0.00;0.00;;;;;;;;;;5097989;28;20236;-74
2022/05/02 10:55:19;;;;;;;0.10;0.10;;;;;;;;;;5074791;28;20533;-74
2022/05/02 10:57:47;;;;;;;0.00;0.00;;;;;;;;;;5096996;28;20285;-74
2022/05/02 11:00:14;;;;;;;0.00;0.00;;;;;;;;;;5073856;28;20197;-73
2022/05/02 11:02:46;;;;;;;0.00;0.00;;;;;;;;;;5097372;28;20220;-73
2022/05/02 11:05:15;;;;;;;0.10;0.10;;;;;;;;;;5073698;28;20218;-73
2022/05/02 11:07:51;;;;;;;0.00;0.00;;;;;;;;;;5097685;28;20207;-75
2022/05/02 11:10:19;;;;;;;0.00;0.00;;;;;;;;;;5074355;28;20194;-74
2022/05/02 11:12:46;;;;;;;0.03;0.03;;;;;;;;;;5096792;28;20341;-74
2022/05/02 11:15:16;;;;;;;0.08;0.08;;;;;;;;;;5073260;28;20201;-73
2022/05/02 11:17:50;;;;;;;0.08;0.08;;;;;;;;;;5097026;28;20746;-74
2022/05/02 11:23:14;;;;;;;0.10;0.10;;;;;;;;;;5094141;28;20200;-74
2022/05/02 11:25:48;;;;;;;0.10;0.10;;;;;;;;;;5077694;28;20241;-74
2022/05/02 11:28:20;;;;;;;0.00;0.00;;;;;;;;;;5093319;28;20241;-72
2022/05/02 11:30:47;;;;;;;0.00;0.00;;;;;;;;;;5077686;28;20587;-73
2022/05/02 11:33:17;;;;;;;0.00;0.00;;;;;;;;;;5092825;28;20206;-73
2022/05/02 11:35:46;;;;;;;0.10;0.10;;;;;;;;;;5077361;28;20249;-73
2022/05/02 11:38:28;;;;;;;0.00;0.00;;;;;;;;;;5092976;28;20206;-72
2022/05/02 11:40:56;;;;;;;0.00;0.00;;;;;;;;;;5078523;28;20417;-72
2022/05/02 11:43:23;;;;;;;0.10;0.10;;;;;;;;;;5091604;28;20422;-73
2022/05/02 11:45:57;;;;;;;0.00;0.00;;;;;;;;;;5077778;28;20242;-72
2022/05/02 11:48:39;;;;;;;0.00;0.00;;;;;;;;;;5091200;28;20213;-73
2022/05/02 11:51:07;;;;;;;0.00;0.00;;;;;;;;;;5079891;28;20241;-71
2022/05/02 11:53:36;;;;;;;0.10;0.10;;;;;;;;;;5090202;28;20206;-72
2022/05/02 11:56:03;;;;;;;0.00;0.00;;;;;;;;;;5079635;28;20294;-73
2022/05/02 11:58:35;;;;;;;0.03;0.03;;;;;;;;;;5090520;28;20262;-72
2022/05/02 12:01:03;;;;;;;0.10;0.10;;;;;;;;;;5079129;28;20256;-72
2022/05/02 12:03:36;;;;;;;0.00;0.00;;;;;;;;;;5092940;28;20281;-72
2022/05/02 12:06:04;;;;;;;0.00;0.00;;;;;;;;;;5083309;28;20301;-71
2022/05/02 12:08:32;;;;;;;0.10;0.10;;;;;;;;;;5093612;28;20207;-72
2022/05/02 12:11:07;;;;;;;0.10;0.10;;;;;;;;;;5082554;28;20250;-71
2022/05/02 12:13:34;;;;;;;0.10;0.10;;;;;;;;;;5093803;28;20212;-72
2022/05/02 12:16:01;;;;;;;0.10;0.10;;;;;;;;;;5082749;28;20244;-72
2022/05/02 12:18:40;;;;;;;0.10;0.10;;;;;;;;;;5094581;28;20212;-72
2022/05/02 12:21:08;;;;;;;0.00;0.00;;;;;;;;;;5083697;28;20248;-71
2022/05/02 12:23:36;;;;;;;0.00;0.00;;;;;;;;;;5093356;28;20205;-72
2022/05/02 12:26:03;;;;;;;0.10;0.10;;;;;;;;;;5083058;28;20263;-71
2022/05/02 12:28:45;;;;;;;0.00;0.00;;;;;;;;;;5094136;28;20215;-71
2022/05/02 12:31:16;;;;;;;0.00;0.00;;;;;;;;;;5081903;28;20249;-72
2022/05/02 12:33:44;;;;;;;0.00;0.00;;;;;;;;;;5092298;28;20210;-73
2022/05/02 12:36:15;;;;;;;0.00;0.00;;;;;;;;;;5083564;28;20566;-71
2022/05/02 12:38:44;;;;;;;0.00;0.00;;;;;;;;;;5091807;28;20206;-72
2022/05/02 12:41:12;;;;;;;0.00;0.00;;;;;;;;;;5083334;28;20256;-72
2022/05/02 12:43:43;;;;;;;0.00;0.00;;;;;;;;;;5092518;28;20437;-72
2022/05/02 12:46:10;;;;;;;0.00;0.00;;;;;;;;;;5083474;28;20241;-70
2022/05/02 12:48:39;;;;;;;0.00;0.00;;;;;;;;;;5093091;28;20218;-70
2022/05/02 12:51:07;;;;;;;0.00;0.00;;;;;;;;;;5082619;28;20269;-71
2022/05/02 12:56:17;;;;;;;0.00;0.00;;;;;;;;;;5084179;28;20291;-71
2022/05/02 13:01:30;;;;;;;0.00;0.00;;;;;;;;;;5085965;28;20291;-74
2022/05/02 13:04:00;;;;;;;0.08;0.08;;;;;;;;;;5090035;28;20240;-72
2022/05/02 13:06:26;;;;;;;0.00;0.00;;;;;;;;;;5085144;28;20259;-72
2022/05/02 13:09:07;;;;;;;0.00;0.00;;;;;;;;;;5090361;28;20270;-71
2022/05/02 13:11:37;;;;;;;0.03;0.03;;;;;;;;;;5086387;28;20240;-73
2022/05/02 13:14:03;;;;;;;0.10;0.10;;;;;;;;;;5088104;28;20200;-72
2022/05/02 13:16:31;;;;;;;0.00;0.00;;;;;;;;;;5085665;28;20258;-72
2022/05/02 13:19:00;;;;;;;0.00;0.00;;;;;;;;;;5089630;28;20237;-73
2022/05/02 13:21:27;;;;;;;0.00;0.00;;;;;;;;;;5085012;28;20292;-72
2022/05/02 13:23:56;;;;;;;0.10;0.10;;;;;;;;;;5089995;28;20205;-72
2022/05/02 13:26:39;;;;;;;0.00;0.00;;;;;;;;;;5084311;28;20515;-72
2022/05/02 13:29:09;;;;;;;0.10;0.10;;;;;;;;;;5088580;28;20426;-74
2022/05/02 13:31:43;;;;;;;0.00;0.00;;;;;;;;;;5084989;28;20255;-71
2022/05/02 13:34:19;;;;;;;0.10;0.10;;;;;;;;;;5088607;28;20199;-71
2022/05/02 13:36:48;;;;;;;0.10;0.10;;;;;;;;;;5087364;28;20436;-72
2022/05/02 13:39:16;;;;;;;0.10;0.10;;;;;;;;;;5086976;28;20505;-72
2022/05/02 13:41:47;;;;;;;0.00;0.00;;;;;;;;;;5086794;28;20241;-71
2022/05/02 13:44:19;;;;;;;0.10;0.10;;;;;;;;;;5086904;28;20331;-73
2022/05/02 13:46:49;;;;;;;0.00;0.00;;;;;;;;;;5087320;28;20621;-71
2022/05/02 13:49:29;;;;;;;0.00;0.00;;;;;;;;;;5086743;28;20275;-72
2022/05/02 13:52:02;;;;;;;0.10;0.10;;;;;;;;;;5088479;28;20351;-72
2022/05/02 13:54:35;;;;;;;0.00;0.00;;;;;;;;;;5085114;28;20205;-72
2022/05/02 13:57:05;;;;;;;0.00;0.00;;;;;;;;;;5089051;28;20284;-72
2022/05/02 13:59:34;;;;;;;0.00;0.00;;;;;;;;;;5084689;28;20207;-73
2022/05/02 14:02:01;;;;;;;0.00;0.00;;;;;;;;;;5088728;28;20311;-73
2022/05/02 14:04:38;;;;;;;0.00;0.00;;;;;;;;;;5084876;28;20231;-74
2022/05/02 14:07:11;;;;;;;0.10;0.10;;;;;;;;;;5089770;28;20297;-73
2022/05/02 14:09:44;;;;;;;0.00;0.00;;;;;;;;;;5084378;28;20222;-73
2022/05/02 14:12:14;;;;;;;0.00;0.00;;;;;;;;;;5089379;28;20311;-72
2022/05/02 14:14:52;;;;;;;0.00;0.00;;;;;;;;;;5084136;28;20496;-73
2022/05/02 14:17:24;;;;;;;0.10;0.10;;;;;;;;;;5088974;28;20284;-71
2022/05/02 14:19:53;;;;;;;0.00;0.00;;;;;;;;;;5083797;28;20209;-72
2022/05/02 14:22:32;;;;;;;0.00;0.00;;;;;;;;;;5089022;28;20246;-73
2022/05/02 14:24:59;;;;;;;0.00;0.00;;;;;;;;;;5083330;28;20428;-73
2022/05/02 14:27:26;;;;;;;0.00;0.00;;;;;;;;;;5088839;28;20240;-72
2022/05/02 14:30:01;;;;;;;0.10;0.10;;;;;;;;;;5083670;28;20211;-74
2022/05/02 14:32:39;;;;;;;0.00;0.00;;;;;;;;;;5088980;28;20245;-73
2022/05/02 14:35:07;;;;;;;0.00;0.00;;;;;;;;;;5083572;28;20263;-82
2022/05/02 14:37:35;;;;;;;0.00;0.00;;;;;;;;;;5072086;28;20428;-78
2022/05/02 14:40:02;;;;;;;0.00;0.00;;;;;;;;;;5084180;28;20244;-80
2022/05/02 14:42:30;;;;;;;0.00;0.00;;;;;;;;;;5088731;28;20262;-79
2022/05/02 14:44:57;;;;;;;0.10;0.10;;;;;;;;;;5083707;28;20231;-79
2022/05/02 14:47:24;;;;;;;0.00;0.00;;;;;;;;;;5088948;28;20249;-81
2022/05/02 14:49:51;;;;;;;0.00;0.00;;;;;;;;;;5083560;28;20396;-79
2022/05/02 14:52:21;;;;;;;0.00;0.00;;;;;;;;;;5088605;28;20487;-81
2022/05/02 14:54:51;;;;;;;0.10;0.10;;;;;;;;;;5083134;28;20198;-78
2022/05/02 14:57:21;;;;;;;0.00;0.00;;;;;;;;;;5088508;28;20274;-80
2022/05/02 14:59:47;;;;;;;0.00;0.00;;;;;;;;;;5083251;28;20273;-79
2022/05/02 15:02:16;;;;;;;0.00;0.00;;;;;;;;;;5088700;28;20251;-79
2022/05/02 15:04:46;;;;;;;0.10;0.10;;;;;;;;;;5083005;28;20229;-80
2022/05/02 15:07:14;;;;;;;0.00;0.00;;;;;;;;;;5088609;28;20243;-81
2022/05/02 15:12:47;;;;;;;0.10;0.10;;;;;;;;;;5088745;28;20278;-79
2022/05/02 15:15:28;;;;;;;0.10;0.10;;;;;;;;;;5073530;28;20210;-79
2022/05/02 15:17:59;;;;;;;0.00;0.00;;;;;;;;;;5095947;28;20483;-79
2022/05/02 15:20:29;;;;;;;0.10;0.10;;;;;;;;;;5074635;28;20237;-80
2022/05/02 15:22:58;;;;;;;0.00;0.00;;;;;;;;;;5081819;28;20201;-80
2022/05/02 15:25:26;;;;;;;0.00;0.00;;;;;;;;;;5074927;28;20367;-81
2022/05/02 15:39:12;;;;;;;0.10;0.10;;;;;;;;;;5090638;28;20232;-79
2022/05/02 15:42:12;;;;;;;0.10;0.10;;;;;;;;;;5089031;28;20243;-78
2022/05/02 15:44:56;;;;;;;0.10;0.10;;;;;;;;;;5086428;28;20236;-80
2022/05/02 15:47:25;;;;;;;0.00;0.00;;;;;;;;;;5092089;28;20443;-80